Capitol Logistics 271




KTLH
Tallahassee International Airport
Tallahassee, Florida
KMIA
Miami International Airport
Miami, Florida

Activity Log

Date Flight Route Aircraft Duration
02/15/2022 CPX271 HEVVN NICKI DANSE FROGZ1 B752 1h 05m
08/23/2021 CPX3271 HEVVN V97 DARBS JUULI SSCOT5 SF34 1h 44m
04/11/2021 CPX3271 HEVVN NICKI JUULI SSCOT5 SF34 1h 54m
04/05/2021 CPX3271 WOUND V97 PIE V35 CURVE SF34 1h 33m
06/08/2019 CPX671 HEVVN NICKI JUULI SSCOT5 SF34 1h 37m

Route Details

Aircraft Information
Group: Narrowbodies
Types: B738,B752
Route Data
Demand: V
Distance: 350nm
Duration: 1h 35m
Recm'd Route: HEVVN NICKI DANSE FROGZ1
Origin Wx: KTLH 270453Z AUTO 00000KT 10SM BKN100 21/21 A2997 RMK AO2 SLP146 T02110206 402390206 $
Dest. Wx: KMIA 270453Z 10009KT 10SM FEW023 FEW070 27/22 A3006 RMK AO2 SLP179 OCNL LTGIC DSNT E CB DSNT E MOV NW T02670222 403110261 $
Notes:

Financial History
Total Freight: 68,119lbs
Average Load: 13,624lbs/flt
Fuel Used: 13,717lbs
Avg. Fuel Used: 2,743lbs/flt
Fuel Expense: $7,665
Avg. Fuel Expense: $1,533
Avg. Fuel Cost: $0.69/lbs
Total Gross Income: $128,103
Pilot Pay: $1,155
Total Expenses: $28,978
Total Revenue: $89,628
Average Revenue: $25,620.63